AirNav   Bose Proflight Series 2 Wireless Aviation Headset
 
 316 users online  

8CA7 Platform Henry Heliport
Carpinteria, California, USA

GOING TO CARPINTERIA?


FAA INFORMATION EFFECTIVE 07 NOVEMBER 2019

Location

FAA Identifier: 8CA7
Lat/Long: 34-19-59.0000N 119-33-40.4000W
34-19.983333N 119-33.673333W
34.3330556,-119.5612222
(estimated)
Elevation: 111 ft. / 34 m (estimated)
Variation: 14E (1985)
From city: 4 miles W of CARPINTERIA, CA
Time zone: UTC -8 (UTC -7 during Daylight Saving Time)
Zip code: 93013

Heliport Operations

Heliport use: Private use. Permission required prior to landing
Activation date: 12/1980
Control tower: no
ARTCC: LOS ANGELES CENTER
FSS: HAWTHORNE FLIGHT SERVICE STATION
Attendance: UNATNDD
Wind indicator: yes
Segmented circle: no
Lights: FOR PERIMETER LGTS CALL 805-653-1286.

Heliport Communications

WX ASOS at SBA (15 nm W): PHONE 805-681-0583
WX ASOS at OXR (19 nm SE): PHONE 805-382-0569

Nearby radio navigation aids

VOR radial/distance  VOR name  Freq  Var
RZSr122/14.8SAN MARCUS VORTAC114.9014E
CMAr272/24.3CAMARILLO VOR/DME115.8015E
VTUr282/28.6VENTURA VOR/DME108.2015E
GVOr098/28.8GAVIOTA VORTAC113.8016E
FIMr253/33.7FILLMORE VORTAC112.5015E

Heliport Services

Runway Information

Helipad H1

Dimensions: 58 x 55 ft. / 18 x 17 m
Surface: mats
REINFORCED STRUCTURAL STEEL PLATE SFC 12000 LBS RATED.
Runway edge lights: PERI
20 60W LAMPS AROUND PERIMETER.
Latitude: 34-19.983333N
Longitude: 119-33.673333W
Elevation: 111.0 ft.
Traffic pattern: leftleft

Heliport Ownership and Management from official FAA records

Ownership: Privately-owned
Owner: UNOCAL
P.O. BOX 6176
VENTURA, CA 93006
Phone 805-656-7600
Manager: D. A. CHUDANOV
P.O. BOX 6176
VENTURA, CA 93006
Phone 805-656-7600

Additional Remarks

A52-H1 LGTD DRILLING RIG & CRANE.
E3A ADDNL PHONE NR TO HHR FSS 1-WX-BRIEF.
FOR CD CTC SANTA BARBARA APCH, WHEN CLSD CTC LOS ANGELES ARTCC AT 661-575-2079.

Instrument Procedures

There are no published instrument procedures at 8CA7.

Some nearby airports with instrument procedures:

KSBA - Santa Barbara Municipal Airport (15 nm W)
KOXR - Oxnard Airport (19 nm SE)
KCMA - Camarillo Airport (24 nm E)
KNTD - Point Mugu Naval Air Station (Naval Base Ventura County) (25 nm SE)
KIZA - Santa Ynez Airport (30 nm NW)
 
Loc | Ops | Rwys | IFR | FBO | Links
Com | Nav | Svcs | Stats | Notes
Area around 8CA7 (Platform Henry Heliport)
 
Road maps at: MapQuest Bing Google
 
Aerial photo
No photo
 
Sectional chart

 
Airport distance calculator
Flying to Platform Henry Heliport? Find the distance to fly.

From to 8CA7

Sunrise and sunset
Times for 15-Nov-2019
 Local
(UTC-8)
 Zulu
(UTC)
Morning civil twilight06:0614:06
Sunrise06:3314:33
Sunset16:5300:53
Evening civil twilight17:2001:20

Current date and time
Zulu (UTC)  15-Nov-2019 08:06:09
Local (UTC-8)  15-Nov-2019 00:06:09
 
METAR
KSBA 
16nm NW 
150753Z AUTO 04004KT 10SM CLR 12/10 A3010 RMK AO2 SLP191 T01220100 402000106
KOXR 
20nm SE 
150751Z AUTO 00000KT 10SM OVC016 13/11 A3012 RMK AO2 SLP198 T01330111 401940128
KCMA 
25nm E 
150755Z AUTO 07004KT 10SM BKN015 13/10 A3012 RMK AO2 SLP208 T01280100 402110117
KNTD 
26nm SE 
150757Z AUTO 06005KT 10SM OVC016 13/11 A3013 RMK AO2 SLP203 T01280111 401940117 VISNO N $
KIZA 
30nm NW 
150755Z AUTO 09005KT 10SM BKN016 12/09 A3012 RMK AO2
TAF
KSBA 
16nm NW 
150545Z 1506/1606 VRB03KT P6SM SCT025 BKN200 FM150700 VRB03KT P6SM BKN015 OVC030 FM151900 15006KT P6SM SCT025 BKN200 FM152100 26007KT P6SM BKN200
KOXR 
20nm SE 
150545Z 1506/1606 VRB03KT P6SM BKN015 OVC025 FM151900 26009KT P6SM SCT025 BKN200 FM160200 VRB03KT P6SM SKC
NOTAMs
Click for the latest NOTAMs
NOTAMs are issued by the DoD/FAA and will open in a separate window not controlled by AirNav.

 

 
 

Would you like to see your business listed on this page?

 If your business provides an interesting product or service to pilots, flight crews, aircraft, or users of the Platform Henry Heliport, you should consider listing it here.  To start the listing process, click on the button below
 
Add a business
 

Other Pages about Platform Henry Heliport

Update a link
 
Copyright © AirNav, LLC. All rights reserved. Privacy Policy  Contact